Time;durP1;ratioP1;P1;durP2;ratioP2;P2;SDS_P1;SDS_P2;PMS_P1;PMS_P2;Temp;Humidity;BMP_temperature;BMP_pressure;BME280_temperature;BME280_humidity;BME280_pressure;Samples;Min_cycle;Max_cycle;Signal;HPM_P1;HPM_P2
2024/01/15 00:01:22;;;;;;;45.15;27.40;;;;;;;9.82;70.76;101155.69;143729;601;47004;-68
2024/01/15 00:03:48;;;;;;;41.50;29.00;;;;;;;9.83;71.35;101159.19;143728;586;48920;-68
2024/01/15 00:06:14;;;;;;;43.00;27.08;;;;;;;9.76;71.36;101160.94;143732;606;47002;-68
2024/01/15 00:08:41;;;;;;;41.63;27.15;;;;;;;9.77;71.54;101151.91;143733;577;47011;-68
2024/01/15 00:11:07;;;;;;;35.58;25.05;;;;;;;9.75;71.44;101143.19;143730;593;47004;-67
2024/01/15 00:13:34;;;;;;;33.33;26.00;;;;;;;9.70;71.28;101141.87;143732;580;46017;-69
2024/01/15 00:16:00;;;;;;;38.88;25.85;;;;;;;9.73;71.64;101146.03;143733;573;47002;-67
2024/01/15 00:18:26;;;;;;;34.75;24.92;;;;;;;9.76;71.05;101147.53;143731;581;47008;-67
2024/01/15 00:20:52;;;;;;;37.85;25.75;;;;;;;9.71;71.51;101143.53;143730;588;47004;-66
2024/01/15 00:23:19;;;;;;;38.95;24.50;;;;;;;9.70;71.39;101151.78;143731;593;47007;-67
2024/01/15 00:25:45;;;;;;;32.53;22.77;;;;;;;9.70;70.86;101135.69;143736;572;46006;-69
2024/01/15 00:28:12;;;;;;;38.00;25.52;;;;;;;9.71;70.88;101143.53;143732;578;47008;-67
2024/01/15 00:30:38;;;;;;;34.20;23.12;;;;;;;9.75;70.28;101140.50;143730;633;47004;-68
2024/01/15 00:33:04;;;;;;;26.55;19.87;;;;;;;9.76;70.22;101143.00;143731;573;47000;-68
2024/01/15 00:35:31;;;;;;;26.58;18.12;;;;;;;9.80;70.31;101143.44;143738;582;46006;-69
2024/01/15 00:37:57;;;;;;;23.12;15.98;;;;;;;9.80;69.86;101140.78;143731;605;47011;-68
2024/01/15 00:40:25;;;;;;;19.75;15.07;;;;;;;9.80;70.04;101143.44;143731;605;47004;-70
2024/01/15 00:42:51;;;;;;;20.20;13.32;;;;;;;9.79;70.24;101142.63;143731;593;47006;-70
2024/01/15 00:45:18;;;;;;;17.67;13.13;;;;;;;9.79;69.92;101139.13;143732;606;47002;-68
2024/01/15 00:47:44;;;;;;;17.05;11.80;;;;;;;9.79;69.77;101141.81;143733;650;46010;-67
2024/01/15 00:50:10;;;;;;;17.52;11.75;;;;;;;9.80;69.69;101136.25;143730;592;47004;-70
2024/01/15 00:52:37;;;;;;;18.85;14.30;;;;;;;9.79;70.34;101148.00;143729;607;48010;-67
2024/01/15 00:55:03;;;;;;;18.55;13.93;;;;;;;9.76;69.99;101144.84;143734;575;47006;-68
2024/01/15 00:57:30;;;;;;;20.60;13.20;;;;;;;9.75;70.32;101143.19;143730;606;47010;-68
2024/01/15 00:59:56;;;;;;;18.60;13.32;;;;;;;9.74;70.08;101133.47;143730;609;47004;-68
2024/01/15 01:02:22;;;;;;;15.95;13.05;;;;;;;9.77;70.34;101128.56;143727;651;47006;-67
2024/01/15 01:04:49;;;;;;;19.27;14.00;;;;;;;9.71;70.63;101119.41;143726;573;47004;-69
2024/01/15 01:07:15;;;;;;;17.92;13.40;;;;;;;9.74;71.07;101123.56;143723;568;47010;-68
2024/01/15 01:09:42;;;;;;;19.15;12.82;;;;;;;9.71;71.25;101118.56;143723;588;47004;-68
2024/01/15 01:12:08;;;;;;;19.17;12.07;;;;;;;9.74;71.12;101128.09;143726;572;47000;-69
2024/01/15 01:14:34;;;;;;;20.55;12.20;;;;;;;9.69;71.08;101117.94;143726;568;47004;-68
2024/01/15 01:17:00;;;;;;;18.60;13.10;;;;;;;9.71;71.15;101122.09;143725;657;47004;-68
2024/01/15 01:19:27;;;;;;;16.25;11.73;;;;;;;9.70;70.30;101127.66;143724;592;47004;-67
2024/01/15 01:21:53;;;;;;;16.00;10.90;;;;;;;9.71;70.70;101130.12;143725;598;47006;-69
2024/01/15 01:24:20;;;;;;;13.40;10.80;;;;;;;9.73;70.05;101140.66;143724;580;47002;-67
2024/01/15 01:26:46;;;;;;;18.77;11.30;;;;;;;9.71;70.58;101135.50;143725;632;47008;-68
2024/01/15 01:29:12;;;;;;;17.12;11.57;;;;;;;9.69;71.13;101129.47;143724;615;47004;-67
2024/01/15 01:31:46;;;;;;;16.92;11.27;;;;;;;9.71;70.58;101134.66;143726;635;46006;-67
2024/01/15 01:34:16;;;;;;;18.45;10.55;;;;;;;9.76;70.47;101129.59;143727;567;46006;-69
2024/01/15 01:36:45;;;;;;;19.10;10.93;;;;;;;9.84;70.18;101131.34;143724;585;47010;-68
2024/01/15 01:39:11;;;;;;;17.08;11.75;;;;;;;9.85;70.50;101133.00;143723;584;47004;-73
2024/01/15 01:41:39;;;;;;;20.02;11.70;;;;;;;9.85;70.52;101123.12;143724;569;46920;-68
2024/01/15 01:44:07;;;;;;;17.60;10.57;;;;;;;9.85;70.96;101119.59;143726;579;47002;-68
2024/01/15 01:46:40;;;;;;;14.35;10.15;;;;;;;9.79;71.03;101125.72;143724;582;47010;-70
2024/01/15 01:49:10;;;;;;;24.02;14.00;;;;;;;9.77;70.83;101119.69;143723;588;47004;-68
2024/01/15 01:51:39;;;;;;;19.27;12.60;;;;;;;9.81;70.81;101116.47;143724;626;47006;-68
2024/01/15 01:54:07;;;;;;;20.85;12.98;;;;;;;9.79;71.19;101110.44;143725;586;47000;-67
2024/01/15 01:56:34;;;;;;;17.10;12.85;;;;;;;9.77;71.53;101100.91;143725;577;47002;-69
2024/01/15 01:59:02;;;;;;;20.60;13.68;;;;;;;9.77;71.37;101104.44;143726;665;47004;-67
2024/01/15 04:01:58;;;;;;;30.33;21.23;;;;;;;8.95;76.84;101002.34;143731;576;47002;-68
2024/01/15 04:04:24;;;;;;;25.10;19.27;;;;;;;8.95;77.04;101005.00;143731;573;47002;-69
2024/01/15 04:06:50;;;;;;;25.73;16.23;;;;;;;8.96;77.18;101003.16;143730;598;47011;-68
2024/01/15 04:09:17;;;;;;;28.38;17.98;;;;;;;9.02;77.18;100990.88;143728;587;47004;-67
2024/01/15 04:11:43;;;;;;;31.40;18.85;;;;;;;9.06;77.42;100995.72;143728;652;46006;-69
2024/01/15 04:14:09;;;;;;;31.23;17.80;;;;;;;9.08;77.24;100992.84;143733;567;47002;-67
2024/01/15 04:16:37;;;;;;;29.80;17.80;;;;;;;9.03;77.66;101000.56;143729;630;47010;-67
2024/01/15 04:19:03;;;;;;;24.95;14.77;;;;;;;9.02;77.83;100999.75;143728;566;47004;-67
2024/01/15 04:21:30;;;;;;;25.92;14.48;;;;;;;9.04;77.44;100996.87;143729;572;46006;-68
2024/01/15 04:23:56;;;;;;;31.33;14.18;;;;;;;9.07;77.64;100993.84;143730;749;47002;-70
2024/01/15 04:26:22;;;;;;;28.33;15.23;;;;;;;9.08;77.37;101006.22;143729;566;47008;-68
2024/01/15 04:28:49;;;;;;;41.53;23.12;;;;;;;9.12;77.29;100994.16;143730;583;47005;-68
2024/01/15 04:31:26;;;;;;;43.87;22.80;;;;;;;9.16;77.29;101005.31;143730;581;46006;-69
2024/01/15 04:33:53;;;;;;;38.55;21.70;;;;;;;9.10;77.89;101002.34;143730;570;47002;-68
2024/01/15 04:36:19;;;;;;;37.47;19.85;;;;;;;9.09;78.33;100989.97;143729;567;47008;-68
2024/01/15 04:38:45;;;;;;;29.95;19.10;;;;;;;9.06;77.97;100997.53;143727;756;47004;-69
2024/01/15 04:41:16;;;;;;;27.58;16.45;;;;;;;9.08;78.31;100992.84;143729;566;47006;-69
2024/01/15 04:43:43;;;;;;;31.02;17.45;;;;;;;9.10;78.96;101001.53;143732;696;47002;-68
2024/01/15 04:46:09;;;;;;;33.53;18.40;;;;;;;9.07;79.21;101007.25;143731;603;46022;-68
2024/01/15 04:48:36;;;;;;;36.00;19.08;;;;;;;9.11;78.65;101013.91;143728;642;47004;-67
2024/01/15 04:51:05;;;;;;;33.78;19.73;;;;;;;9.14;78.83;101012.72;143730;581;46921;-69
2024/01/15 04:53:32;;;;;;;34.60;21.17;;;;;;;9.18;78.52;101019.38;143732;599;47004;-68
2024/01/15 04:55:58;;;;;;;34.05;21.95;;;;;;;9.14;79.37;101010.88;143728;572;47008;-69
2024/01/15 04:58:26;;;;;;;32.42;19.90;;;;;;;9.16;79.09;101013.37;143730;609;47004;-67
2024/01/15 05:00:54;;;;;;;33.80;20.62;;;;;;;9.20;79.63;101009.31;143729;593;46006;-68
2024/01/15 05:03:20;;;;;;;31.67;18.37;;;;;;;9.21;80.18;101009.13;143721;629;47002;-69
2024/01/15 05:05:46;;;;;;;30.37;18.52;;;;;;;9.22;80.60;101010.78;143725;595;46009;-69
2024/01/15 05:08:13;;;;;;;34.72;20.08;;;;;;;9.23;80.50;101004.41;143721;689;47004;-70
2024/01/15 05:10:39;;;;;;;41.70;22.25;;;;;;;9.26;79.73;101000.56;143723;574;46006;-70
2024/01/15 05:13:06;;;;;;;36.95;20.30;;;;;;;9.25;79.45;101007.75;143723;586;47002;-67
2024/01/15 05:15:32;;;;;;;42.67;20.00;;;;;;;9.24;79.61;101008.75;143721;619;47008;-67
2024/01/15 05:17:59;;;;;;;46.60;28.58;;;;;;;9.25;79.59;101005.06;143720;593;47004;-69
2024/01/15 05:20:25;;;;;;;41.72;24.37;;;;;;;9.33;79.71;101003.34;143722;595;47006;-68
2024/01/15 05:22:51;;;;;;;33.22;21.42;;;;;;;9.34;79.81;101003.13;143721;589;47002;-68
2024/01/15 05:25:18;;;;;;;31.35;19.60;;;;;;;9.36;79.92;101005.63;143722;572;47010;-69
2024/01/15 05:27:44;;;;;;;33.55;21.87;;;;;;;9.39;80.65;101008.78;143722;609;47004;-69
2024/01/15 05:30:11;;;;;;;36.10;19.95;;;;;;;9.36;80.36;101013.66;143719;590;47006;-69
2024/01/15 05:32:37;;;;;;;30.27;17.45;;;;;;;9.32;79.60;101007.84;143725;665;46006;-69
2024/01/15 05:35:04;;;;;;;24.83;16.50;;;;;;;9.34;79.30;101015.72;143719;581;47009;-70
2024/01/15 05:37:31;;;;;;;32.38;17.23;;;;;;;9.30;79.71;101007.19;143721;595;47004;-69
2024/01/15 05:39:58;;;;;;;35.97;21.37;;;;;;;9.28;80.20;101008.41;143725;626;46006;-69
2024/01/15 05:42:24;;;;;;;25.62;18.48;;;;;;;9.22;79.81;101001.94;143727;713;47000;-68
2024/01/15 05:44:51;;;;;;;36.20;20.70;;;;;;;9.20;80.25;101002.09;143720;634;47008;-68
2024/01/15 05:47:18;;;;;;;32.63;18.77;;;;;;;9.20;80.09;101002.09;143718;597;48008;-68
2024/01/15 05:49:44;;;;;;;30.33;17.67;;;;;;;9.24;79.42;101008.75;143723;594;47006;-68
2024/01/15 05:52:11;;;;;;;22.30;16.02;;;;;;;9.28;79.57;101000.34;143724;584;47004;-68
2024/01/15 05:54:37;;;;;;;40.03;18.65;;;;;;;9.32;80.18;101001.66;143724;574;47004;-68
2024/01/15 05:57:04;;;;;;;35.65;18.45;;;;;;;9.31;80.14;100994.62;143721;598;47005;-69
2024/01/15 05:59:32;;;;;;;30.27;16.27;;;;;;;9.33;80.00;100990.75;143722;582;47919;-68
2024/01/15 06:01:58;;;;;;;31.67;18.90;;;;;;;9.37;80.14;100993.88;143724;602;47002;-68
2024/01/15 06:04:25;;;;;;;24.83;17.62;;;;;;;9.38;79.96;100992.87;143723;610;47004;-68
2024/01/15 06:06:51;;;;;;;36.92;19.00;;;;;;;9.42;80.48;100986.13;143722;574;47004;-68
2024/01/15 06:09:17;;;;;;;38.70;21.77;;;;;;;9.45;80.51;100987.59;143723;595;46008;-68
2024/01/15 06:11:43;;;;;;;40.50;21.42;;;;;;;9.49;80.62;100996.94;143724;616;47002;-68
2024/01/15 06:14:10;;;;;;;44.85;21.87;;;;;;;9.48;81.11;100996.13;143721;581;47011;-70
2024/01/15 06:16:36;;;;;;;40.55;22.35;;;;;;;9.49;81.57;100988.91;143721;574;47004;-68
2024/01/15 06:19:02;;;;;;;47.55;22.45;;;;;;;9.50;81.86;100998.59;143721;573;47006;-68
2024/01/15 06:21:29;;;;;;;43.55;22.25;;;;;;;9.47;81.49;100999.81;143722;580;47004;-68
2024/01/15 06:23:56;;;;;;;41.28;20.45;;;;;;;9.52;81.90;101002.78;143723;567;47010;-68
2024/01/15 06:26:25;;;;;;;36.67;24.05;;;;;;;9.53;81.88;101001.75;143722;664;47004;-68
2024/01/15 06:28:51;;;;;;;45.75;22.87;;;;;;;9.50;81.56;100999.47;143723;663;47000;-69
2024/01/15 06:31:18;;;;;;;39.45;23.92;;;;;;;9.53;81.74;100999.06;143724;628;47004;-68
2024/01/15 06:33:47;;;;;;;33.13;21.98;;;;;;;9.58;81.39;100995.84;143722;650;47004;-68
2024/01/15 06:36:13;;;;;;;44.85;25.35;;;;;;;9.63;81.46;100987.25;143722;606;47004;-69
2024/01/15 06:38:39;;;;;;;44.28;23.98;;;;;;;9.63;81.94;100990.75;143722;620;47006;-68
2024/01/15 06:41:05;;;;;;;38.80;23.33;;;;;;;9.66;82.36;100989.56;143724;605;47004;-67
2024/01/15 06:43:32;;;;;;;41.45;22.80;;;;;;;9.66;82.73;100985.00;143722;577;47011;-68
2024/01/15 06:45:58;;;;;;;46.97;26.40;;;;;;;9.74;82.73;100983.25;143722;604;47002;-68
2024/01/15 06:48:25;;;;;;;50.45;25.02;;;;;;;9.75;83.32;100988.44;143723;594;47006;-68
2024/01/15 06:50:51;;;;;;;44.40;26.15;;;;;;;9.79;83.97;100999.66;143724;573;47005;-69
2024/01/15 06:53:17;;;;;;;52.88;26.08;;;;;;;9.82;84.54;101001.94;143722;568;47010;-68
2024/01/15 06:55:43;;;;;;;50.42;26.85;;;;;;;9.88;84.88;101003.06;143720;663;47004;-67
2024/01/15 06:58:10;;;;;;;47.78;27.25;;;;;;;9.93;84.41;101006.84;143723;576;47007;-70
2024/01/15 07:00:37;;;;;;;43.70;28.10;;;;;;;10.01;84.48;101009.41;143725;565;47004;-68
2024/01/15 07:03:04;;;;;;;51.75;30.58;;;;;;;10.05;84.70;101007.19;143721;590;47918;-68
2024/01/15 07:05:30;;;;;;;49.63;28.00;;;;;;;10.12;83.72;101008.09;143722;596;47004;-69
2024/01/15 07:07:57;;;;;;;49.53;28.98;;;;;;;10.19;84.54;100996.59;143722;577;46006;-68
2024/01/15 07:10:23;;;;;;;49.55;28.62;;;;;;;10.23;86.14;100987.97;143724;591;47002;-68
2024/01/15 07:12:49;;;;;;;49.08;32.03;;;;;;;10.27;86.03;100993.78;143723;573;46008;-68
2024/01/15 07:15:16;;;;;;;48.45;31.10;;;;;;;10.31;85.25;100990.56;143721;589;47004;-68
2024/01/15 07:17:42;;;;;;;48.80;32.63;;;;;;;10.37;84.40;100980.06;143724;579;46006;-67
2024/01/15 07:20:10;;;;;;;57.40;32.22;;;;;;;10.44;84.40;100981.00;143722;575;47004;-66
2024/01/15 07:22:37;;;;;;;47.75;25.95;;;;;;;10.50;83.78;100985.59;143722;572;47918;-72
2024/01/15 07:25:06;;;;;;;41.05;26.58;;;;;;;10.61;82.23;100987.78;143722;590;47004;-71
2024/01/15 07:27:33;;;;;;;49.58;29.90;;;;;;;10.72;82.06;100985.59;143723;582;46008;-72
2024/01/15 07:29:59;;;;;;;45.40;29.45;;;;;;;10.82;81.83;100986.13;143725;620;47006;-72
2024/01/15 07:32:26;;;;;;;43.95;28.87;;;;;;;10.94;81.40;100988.25;143719;572;47010;-71
2024/01/15 07:34:52;;;;;;;45.12;27.77;;;;;;;11.01;81.34;100989.16;143720;567;47006;-71
2024/01/15 07:37:18;;;;;;;49.17;30.27;;;;;;;11.09;81.41;100989.00;143723;588;47008;-71
2024/01/15 07:39:45;;;;;;;44.22;26.95;;;;;;;11.14;80.82;100999.16;143724;657;47004;-72
2024/01/15 07:42:11;;;;;;;41.53;26.62;;;;;;;11.17;80.93;100999.63;143722;588;47011;-72
2024/01/15 07:44:38;;;;;;;37.75;25.50;;;;;;;11.28;80.96;101000.09;143722;578;47006;-72
2024/01/15 07:47:04;;;;;;;45.83;26.00;;;;;;;11.38;80.78;101014.84;143724;632;47008;-72
2024/01/15 07:49:31;;;;;;;42.95;26.42;;;;;;;11.47;80.00;101012.03;143724;645;47006;-72
2024/01/15 07:51:57;;;;;;;40.97;25.27;;;;;;;11.52;80.75;101010.41;143721;604;47010;-72
2024/01/15 07:54:24;;;;;;;38.25;25.52;;;;;;;11.58;80.41;101003.41;143719;574;47010;-72
2024/01/15 07:57:03;;;;;;;36.90;24.25;;;;;;;11.62;81.23;101004.66;143722;590;47008;-72
2024/01/15 07:59:30;;;;;;;41.33;25.20;;;;;;;11.67;80.66;101004.06;143723;608;47004;-72
2024/01/15 08:01:56;;;;;;;46.40;26.55;;;;;;;11.77;81.35;101001.00;143722;605;47012;-71
2024/01/15 08:04:23;;;;;;;38.95;24.80;;;;;;;11.82;81.40;100999.37;143720;621;47006;-72
2024/01/15 08:06:49;;;;;;;38.47;25.85;;;;;;;11.89;81.69;100996.72;143724;604;46008;-72
2024/01/15 08:09:15;;;;;;;40.50;27.42;;;;;;;11.94;82.87;100993.41;143721;589;47006;-72
2024/01/15 08:11:42;;;;;;;46.92;29.05;;;;;;;11.99;82.54;100999.06;143723;645;46012;-72
2024/01/15 08:14:09;;;;;;;42.38;27.23;;;;;;;12.03;81.41;100994.09;143724;608;46019;-72
2024/01/15 08:16:36;;;;;;;52.88;28.45;;;;;;;12.07;82.41;100998.91;143723;614;47008;-72
2024/01/15 08:19:03;;;;;;;53.25;29.58;;;;;;;12.13;82.67;100999.94;143724;617;47006;-72
2024/01/15 08:21:30;;;;;;;43.17;28.80;;;;;;;12.18;82.23;101004.72;143721;578;47010;-72
2024/01/15 08:23:59;;;;;;;47.90;29.02;;;;;;;12.19;82.40;100996.44;143720;689;47006;-72
2024/01/15 08:26:26;;;;;;;45.28;27.98;;;;;;;12.24;81.49;100996.66;143723;646;46009;-72
2024/01/15 08:28:52;;;;;;;45.92;28.45;;;;;;;12.43;80.76;100994.22;143721;686;47006;-72
2024/01/15 08:31:19;;;;;;;40.03;27.60;;;;;;;12.61;80.47;100993.66;143723;572;47010;-72
2024/01/15 08:33:45;;;;;;;46.28;28.83;;;;;;;12.78;81.66;100990.56;143721;699;47006;-72
2024/01/15 08:36:12;;;;;;;43.92;28.87;;;;;;;12.88;82.12;100989.06;143723;624;46923;-72
2024/01/15 08:38:39;;;;;;;47.38;27.80;;;;;;;13.07;81.69;100981.19;143722;593;47008;-72
2024/01/15 08:41:05;;;;;;;47.20;28.98;;;;;;;13.25;81.94;100985.09;143723;569;47006;-72
2024/01/15 08:43:31;;;;;;;55.25;28.90;;;;;;;13.39;81.49;100983.22;143721;680;47006;-72
2024/01/15 08:45:57;;;;;;;45.70;28.75;;;;;;;13.61;80.23;100981.97;143721;626;47008;-71
2024/01/15 08:48:25;;;;;;;42.83;25.67;;;;;;;13.75;79.38;100990.00;143722;695;47006;-71
2024/01/15 08:50:52;;;;;;;42.50;27.20;;;;;;;13.84;78.47;101004.94;143725;627;47013;-71
2024/01/15 08:53:19;;;;;;;47.80;30.92;;;;;;;13.87;78.77;100984.78;143722;576;47006;-73
2024/01/15 08:55:45;;;;;;;47.97;30.83;;;;;;;14.04;78.37;100977.84;143723;621;47009;-72
2024/01/15 08:58:11;;;;;;;47.83;33.05;;;;;;;14.24;78.56;100969.63;143725;642;47004;-72
2024/01/15 09:00:38;;;;;;;42.35;28.08;;;;;;;14.63;77.61;100971.47;143724;566;47012;-72
2024/01/15 09:03:05;;;;;;;35.10;23.98;;;;;;;14.95;75.54;100977.69;143721;628;47006;-70
2024/01/15 09:05:32;;;;;;;37.92;25.60;;;;;;;15.18;74.85;100973.50;143727;648;46008;-72
2024/01/15 09:07:58;;;;;;;37.85;23.73;;;;;;;15.46;74.60;100962.19;143724;682;47004;-72
2024/01/15 09:10:25;;;;;;;27.30;17.35;;;;;;;15.81;71.97;100960.75;143721;587;47924;-72
2024/01/15 09:12:51;;;;;;;22.50;17.42;;;;;;;16.08;70.70;100962.31;143724;575;47006;-72
2024/01/15 09:15:18;;;;;;;19.90;13.50;;;;;;;16.94;69.87;100967.47;143725;622;46008;-72
2024/01/15 09:17:44;;;;;;;34.58;18.60;;;;;;;20.20;63.71;100965.72;143724;590;47004;-72
2024/01/15 09:20:11;;;;;;;20.77;13.20;;;;;;;24.63;53.01;100949.16;143724;569;47010;-72
2024/01/15 09:22:44;;;;;;;26.85;17.55;;;;;;;28.05;45.36;100926.19;143723;592;47004;-71
2024/01/15 09:25:11;;;;;;;25.42;17.92;;;;;;;30.19;39.91;100912.56;143722;579;47008;-71
2024/01/15 09:27:37;;;;;;;31.87;20.27;;;;;;;30.62;37.52;100915.59;143722;581;47004;-71
2024/01/15 09:30:05;;;;;;;31.75;20.50;;;;;;;30.41;36.90;100894.09;143721;590;47012;-71
2024/01/15 09:32:32;;;;;;;28.17;19.95;;;;;;;29.31;37.36;100882.00;143720;584;47007;-71
2024/01/15 09:34:59;;;;;;;29.30;20.33;;;;;;;28.24;38.28;100889.31;143722;601;47008;-71
2024/01/15 09:37:25;;;;;;;31.80;20.15;;;;;;;27.29;39.34;100888.13;143725;837;47002;-71
2024/01/15 09:39:53;;;;;;;24.37;15.63;;;;;;;26.51;40.34;100883.25;143722;982;47012;-72
2024/01/15 09:42:19;;;;;;;22.15;11.85;;;;;;;26.22;40.80;100874.09;143722;582;47004;-72
2024/01/15 09:44:47;;;;;;;18.37;10.35;;;;;;;25.92;41.77;100876.19;143720;597;48000;-72
2024/01/15 09:47:13;;;;;;;15.00;8.65;;;;;;;25.90;42.48;100872.13;143724;588;47002;-72
2024/01/15 09:49:40;;;;;;;14.52;8.20;;;;;;;25.98;42.66;100861.25;143723;678;47015;-72
2024/01/15 09:52:08;;;;;;;10.07;7.03;;;;;;;25.35;44.34;100857.72;143722;729;47004;-72
2024/01/15 09:54:34;;;;;;;10.88;6.80;;;;;;;24.73;44.96;100852.97;143725;580;46006;-73
2024/01/15 09:57:04;;;;;;;10.43;6.72;;;;;;;24.49;44.93;100861.16;143725;582;47004;-73
2024/01/15 09:59:32;;;;;;;9.02;6.47;;;;;;;23.91;46.24;100852.56;143723;604;47010;-73
2024/01/15 10:02:00;;;;;;;8.90;6.53;;;;;;;23.50;46.26;100843.75;143724;633;47004;-73
2024/01/15 10:04:27;;;;;;;8.70;6.72;;;;;;;23.24;47.82;100835.69;143722;586;47000;-73
2024/01/15 10:06:55;;;;;;;8.18;5.80;;;;;;;23.51;47.93;100826.22;143724;595;47002;-73
2024/01/15 10:09:21;;;;;;;7.93;4.93;;;;;;;23.67;47.68;100825.00;143726;573;46008;-72
2024/01/15 10:11:48;;;;;;;5.95;4.25;;;;;;;23.71;46.69;100820.59;143721;717;47004;-72
2024/01/15 10:14:14;;;;;;;5.95;3.35;;;;;;;23.79;46.49;100808.19;143725;602;46006;-72
2024/01/15 10:16:41;;;;;;;7.15;4.12;;;;;;;24.33;46.51;100802.84;143724;591;47004;-72
2024/01/15 10:19:10;;;;;;;9.30;4.40;;;;;;;24.86;46.21;100802.03;143725;591;46009;-72
2024/01/15 10:21:37;;;;;;;6.07;3.85;;;;;;;25.66;45.23;100787.75;143723;590;47004;-72
2024/01/15 10:24:04;;;;;;;4.50;3.00;;;;;;;26.21;44.13;100770.59;143724;572;46006;-72
2024/01/15 10:26:32;;;;;;;6.43;4.10;;;;;;;27.14;43.06;100768.75;143723;572;47002;-72
2024/01/15 10:29:01;;;;;;;5.40;3.80;;;;;;;28.51;41.49;100766.78;143725;585;47002;-72
2024/01/15 10:31:28;;;;;;;6.55;4.25;;;;;;;29.45;40.07;100765.69;143723;586;47004;-72
2024/01/15 10:34:09;;;;;;;7.95;4.10;;;;;;;32.89;36.76;100745.41;143725;577;47006;-72
2024/01/15 10:36:35;;;;;;;6.20;3.50;;;;;;;34.32;34.30;100732.19;143729;581;47006;-72
2024/01/15 10:39:03;;;;;;;6.35;3.95;;;;;;;32.50;35.14;100734.63;143724;582;47008;-73
2024/01/15 10:41:29;;;;;;;7.43;4.10;;;;;;;29.26;36.87;100729.22;143724;591;47004;-72
2024/01/15 10:43:56;;;;;;;4.32;3.70;;;;;;;27.31;39.08;100739.72;143725;631;47006;-73
2024/01/15 10:46:22;;;;;;;6.97;4.07;;;;;;;26.56;40.27;100740.75;143726;579;47002;-72
2024/01/15 10:48:49;;;;;;;6.93;3.83;;;;;;;26.06;41.19;100735.91;143719;589;47008;-72
2024/01/15 10:51:15;;;;;;;9.52;4.85;;;;;;;26.03;41.56;100742.00;143726;627;46013;-72
2024/01/15 10:53:42;;;;;;;6.57;4.37;;;;;;;25.42;42.85;100741.91;143726;572;47006;-73
2024/01/15 10:56:11;;;;;;;4.40;3.50;;;;;;;25.08;43.13;100740.19;143726;608;47002;-73
2024/01/15 10:58:40;;;;;;;7.90;3.62;;;;;;;24.97;43.84;100723.84;143724;570;47010;-72
2024/01/15 11:01:06;;;;;;;6.18;4.07;;;;;;;24.52;43.19;100720.56;143723;670;47006;-72
2024/01/15 11:03:33;;;;;;;5.95;4.05;;;;;;;23.83;44.35;100712.47;143726;595;47008;-73
2024/01/15 11:06:00;;;;;;;4.97;3.50;;;;;;;23.65;44.93;100712.06;143726;567;47008;-73
2024/01/15 11:08:26;;;;;;;8.18;3.12;;;;;;;22.90;45.49;100708.44;143724;613;47010;-72
2024/01/15 11:10:54;;;;;;;6.03;3.45;;;;;;;22.54;46.24;100694.91;143723;581;47006;-72
2024/01/15 11:13:39;;;;;;;7.15;3.70;;;;;;;22.29;46.92;100698.53;143726;666;46008;-72
2024/01/15 11:16:13;;;;;;;5.95;3.17;;;;;;;21.87;47.67;100700.53;143725;579;47004;-72
2024/01/15 11:19:01;;;;;;;5.00;3.60;;;;;;;22.05;48.10;100680.81;143724;608;47010;-72
2024/01/15 11:21:29;;;;;;;6.28;4.37;;;;;;;21.95;48.04;100678.91;143722;573;47006;-71
2024/01/15 11:23:58;;;;;;;7.00;3.67;;;;;;;21.65;48.65;100686.06;143723;734;47925;-72
2024/01/15 11:26:44;;;;;;;7.00;3.20;;;;;;;21.36;49.27;100674.81;143726;627;47004;-73
2024/01/15 11:29:35;;;;;;;5.32;3.60;;;;;;;20.92;49.66;100667.94;143723;569;47012;-72
2024/01/15 11:32:08;;;;;;;6.65;3.53;;;;;;;20.42;50.40;100670.19;143724;577;47006;-73
2024/01/15 11:34:54;;;;;;;6.00;4.32;;;;;;;20.13;51.75;100665.13;143726;713;47006;-72
2024/01/15 11:37:23;;;;;;;7.03;3.97;;;;;;;19.85;52.60;100654.31;143726;787;47004;-73
2024/01/15 11:39:52;;;;;;;9.18;4.35;;;;;;;19.64;53.27;100658.78;143722;567;47010;-73
2024/01/15 11:42:20;;;;;;;6.75;4.25;;;;;;;19.49;53.44;100661.41;143721;693;47004;-73
2024/01/15 11:44:47;;;;;;;4.85;4.15;;;;;;;19.38;53.55;100668.66;143724;584;47006;-73
2024/01/15 11:47:13;;;;;;;5.80;3.30;;;;;;;19.15;53.46;100669.81;143725;590;47004;-73
2024/01/15 11:50:05;;;;;;;5.87;4.03;;;;;;;18.84;54.60;100664.84;143723;797;47011;-71
2024/01/15 11:52:38;;;;;;;4.90;3.50;;;;;;;18.59;55.74;100663.47;143724;980;47004;-72
2024/01/15 11:55:38;;;;;;;6.75;3.72;;;;;;;18.62;55.68;100673.84;143721;798;49920;-72
2024/01/15 11:58:12;;;;;;;5.07;3.42;;;;;;;18.24;55.81;100675.53;143726;568;47002;-71
2024/01/15 12:00:45;;;;;;;5.72;3.45;;;;;;;17.97;56.27;100684.37;143726;576;46006;-72
2024/01/15 12:03:12;;;;;;;6.03;4.07;;;;;;;18.05;56.72;100682.31;143723;853;47004;-72
2024/01/15 12:05:39;;;;;;;6.68;5.50;;;;;;;18.14;56.44;100678.94;143724;618;47002;-72
2024/01/15 12:08:10;;;;;;;7.40;4.93;;;;;;;18.15;56.85;100666.97;143730;596;47000;-72
2024/01/15 12:10:43;;;;;;;8.32;5.72;;;;;;;18.17;56.74;100664.84;143725;676;47010;-72
2024/01/15 12:13:17;;;;;;;13.68;4.75;;;;;;;18.08;56.65;100666.34;143724;618;47004;-72
2024/01/15 12:15:45;;;;;;;6.25;5.30;;;;;;;17.96;57.04;100655.56;143726;716;46022;-72
2024/01/15 12:18:16;;;;;;;6.15;4.07;;;;;;;17.91;56.91;100652.75;143726;592;47004;-71
2024/01/15 12:20:44;;;;;;;5.90;3.62;;;;;;;17.83;57.31;100653.16;143725;600;47010;-72
2024/01/15 12:23:11;;;;;;;7.00;3.67;;;;;;;17.82;57.14;100651.53;143722;576;47010;-72
2024/01/15 12:25:38;;;;;;;6.97;4.70;;;;;;;17.82;57.86;100651.53;143726;609;47000;-72
2024/01/15 12:28:05;;;;;;;8.70;6.20;;;;;;;17.83;58.11;100648.56;143725;578;47002;-72
2024/01/15 12:30:34;;;;;;;13.30;6.65;;;;;;;17.80;58.80;100637.37;143727;601;46008;-72
2024/01/15 12:33:04;;;;;;;8.20;5.30;;;;;;;17.76;58.79;100633.50;143726;595;46008;-71
2024/01/15 12:35:30;;;;;;;9.32;6.93;;;;;;;17.73;59.62;100635.66;143726;567;47006;-72
2024/01/15 12:37:57;;;;;;;8.88;6.18;;;;;;;17.68;59.95;100634.75;143728;602;46006;-70
2024/01/15 12:40:23;;;;;;;11.48;7.03;;;;;;;17.50;61.22;100644.81;143725;580;47009;-71
2024/01/15 12:42:50;;;;;;;11.07;7.72;;;;;;;17.51;62.63;100638.31;143724;589;47004;-71
2024/01/15 12:45:17;;;;;;;9.48;6.40;;;;;;;17.53;63.36;100625.31;143725;586;47006;-71
2024/01/15 12:47:44;;;;;;;13.62;8.20;;;;;;;17.53;62.73;100638.03;143729;575;46007;-71
2024/01/15 12:50:11;;;;;;;13.07;7.95;;;;;;;17.49;62.80;100640.44;143725;624;47008;-71
2024/01/15 12:52:40;;;;;;;16.98;10.27;;;;;;;17.51;64.35;100634.75;143718;613;48002;-72
2024/01/15 12:55:10;;;;;;;13.15;10.98;;;;;;;17.52;64.28;100633.69;143721;633;47003;-72
2024/01/15 12:57:37;;;;;;;16.73;10.23;;;;;;;17.48;65.68;100638.78;143727;584;46009;-72
2024/01/15 13:00:11;;;;;;;11.15;9.95;;;;;;;17.40;65.70;100631.88;143726;578;47008;-73
2024/01/15 13:02:42;;;;;;;15.60;10.63;;;;;;;17.39;67.79;100629.41;143724;573;47004;-71
2024/01/15 13:05:12;;;;;;;22.58;11.55;;;;;;;17.38;67.74;100625.88;143725;590;46918;-70
2024/01/15 13:07:38;;;;;;;32.92;17.17;;;;;;;17.36;69.00;100619.06;143726;613;47002;-71
2024/01/15 13:10:06;;;;;;;25.08;15.73;;;;;;;17.33;70.19;100623.06;143725;569;47009;-70
2024/01/15 13:12:33;;;;;;;23.00;15.13;;;;;;;17.28;74.00;100623.81;143723;626;47004;-71
2024/01/15 13:14:59;;;;;;;23.55;13.98;;;;;;;17.24;76.28;100614.50;143725;574;46006;-71
2024/01/15 13:17:28;;;;;;;24.65;15.88;;;;;;;17.16;82.96;100614.94;143728;578;47006;-73
2024/01/15 13:19:54;;;;;;;25.45;17.42;;;;;;;17.13;81.39;100607.28;143724;640;47008;-72